createdAt,value
2018-11-04T00:01:12.659Z,21.07
2018-11-04T00:03:40.628Z,24.47
2018-11-04T00:06:08.612Z,26.73
2018-11-04T00:08:36.539Z,21.97
2018-11-04T00:11:04.757Z,19.90
2018-11-04T00:13:32.653Z,23.43
2018-11-04T00:16:00.597Z,21.70
2018-11-04T00:18:28.461Z,25.17
2018-11-04T00:20:56.339Z,23.03
2018-11-04T00:23:24.247Z,23.37
2018-11-04T00:25:52.182Z,23.17
2018-11-04T00:28:20.095Z,23.17
2018-11-04T00:30:48.025Z,26.13
2018-11-04T00:33:15.884Z,23.37
2018-11-04T00:35:43.812Z,26.10
2018-11-04T00:38:11.726Z,19.40
2018-11-04T00:40:39.681Z,25.17
2018-11-04T00:43:07.544Z,24.47
2018-11-04T00:45:35.535Z,27.17
2018-11-04T00:48:03.453Z,24.47
2018-11-04T00:50:31.408Z,19.57
2018-11-04T00:52:59.348Z,21.50
2018-11-04T00:55:27.301Z,23.87
2018-11-04T00:57:55.229Z,20.13
2018-11-04T01:00:23.429Z,18.10
2018-11-04T01:02:51.372Z,19.47
2018-11-04T01:05:19.394Z,22.93
2018-11-04T01:07:47.352Z,22.20
2018-11-04T01:10:15.310Z,20.13
2018-11-04T01:12:43.943Z,19.70
2018-11-04T01:15:12.926Z,22.17
2018-11-04T01:17:41.507Z,20.73
2018-11-04T01:20:11.631Z,24.07
2018-11-04T01:22:39.545Z,25.80
2018-11-04T01:25:07.436Z,21.97
2018-11-04T01:27:35.409Z,21.53
2018-11-04T01:30:03.379Z,21.37
2018-11-04T01:32:31.304Z,18.33
2018-11-04T01:34:59.237Z,20.63
2018-11-04T01:37:27.139Z,17.87
2018-11-04T01:39:55.057Z,21.50
2018-11-04T01:42:22.993Z,20.27
2018-11-04T01:44:50.972Z,22.47
2018-11-04T01:47:18.833Z,19.77
2018-11-04T01:49:46.756Z,18.57
2018-11-04T01:52:14.690Z,20.67
2018-11-04T01:54:42.680Z,19.37
2018-11-04T01:57:10.540Z,20.87
2018-11-04T01:59:38.465Z,18.87
2018-11-04T02:02:06.377Z,21.73
2018-11-04T02:04:34.368Z,21.53
2018-11-04T02:07:02.289Z,20.93
2018-11-04T02:09:30.215Z,20.30
2018-11-04T02:11:58.157Z,22.33
2018-11-04T02:14:26.127Z,22.03
2018-11-04T02:16:54.095Z,20.50
2018-11-04T02:19:22.009Z,20.43
2018-11-04T02:21:49.942Z,22.67
2018-11-04T02:24:17.884Z,21.27
2018-11-04T02:26:45.748Z,21.63
2018-11-04T02:29:13.636Z,23.30
2018-11-04T02:31:41.552Z,19.53
2018-11-04T02:34:09.519Z,27.10
2018-11-04T02:36:37.417Z,26.70
2018-11-04T02:39:06.503Z,21.73
2018-11-04T02:41:34.419Z,23.40
2018-11-04T02:44:03.045Z,22.27
2018-11-04T02:46:31.085Z,20.77
2018-11-04T02:48:59.095Z,20.53
2018-11-04T02:51:27.028Z,20.37
2018-11-04T02:53:54.951Z,18.40
2018-11-04T02:56:22.909Z,24.03
2018-11-04T02:58:50.866Z,21.87
2018-11-04T03:01:18.845Z,22.10
2018-11-04T03:03:46.800Z,20.80
2018-11-04T03:06:14.774Z,20.50
2018-11-04T03:08:42.708Z,22.57
2018-11-04T03:11:10.656Z,20.13
2018-11-04T03:13:38.612Z,21.57
2018-11-04T03:16:06.572Z,19.43
2018-11-04T03:18:34.541Z,22.67
2018-11-04T03:21:02.450Z,23.53
2018-11-04T03:23:30.441Z,20.40
2018-11-04T03:25:58.434Z,24.83
2018-11-04T03:28:26.355Z,23.40
2018-11-04T03:30:54.265Z,20.40
2018-11-04T03:33:22.222Z,19.47
2018-11-04T03:35:50.134Z,22.67
2018-11-04T03:38:18.048Z,28.20
2018-11-04T03:40:45.968Z,26.90
2018-11-04T03:43:13.950Z,21.63
2018-11-04T03:45:41.869Z,24.67
2018-11-04T03:48:09.870Z,24.83
2018-11-04T03:50:37.749Z,25.27
2018-11-04T03:53:06.690Z,26.53
2018-11-04T03:55:35.593Z,24.47
2018-11-04T03:58:03.948Z,22.57
2018-11-04T04:00:31.901Z,24.77
2018-11-04T04:02:59.783Z,25.63
2018-11-04T04:05:27.704Z,23.13
2018-11-04T04:07:55.707Z,21.17
2018-11-04T04:10:23.587Z,27.57
2018-11-04T04:12:51.474Z,25.23
2018-11-04T04:15:19.422Z,32.87
2018-11-04T04:17:47.403Z,25.07
2018-11-04T04:20:15.370Z,23.50
2018-11-04T04:22:43.315Z,24.73
2018-11-04T04:25:11.272Z,23.00
2018-11-04T04:27:39.198Z,22.33
2018-11-04T04:30:08.971Z,24.73
2018-11-04T04:32:36.953Z,22.53
2018-11-04T04:35:05.725Z,21.63
2018-11-04T04:37:33.708Z,23.07
2018-11-04T04:40:02.289Z,24.93
2018-11-04T04:42:30.268Z,26.97
2018-11-04T04:44:58.329Z,24.47
2018-11-04T04:47:26.311Z,27.83
2018-11-04T04:49:54.414Z,24.73
2018-11-04T04:52:22.374Z,24.83
2018-11-04T04:54:50.303Z,26.37
2018-11-04T04:57:18.208Z,24.07
2018-11-04T04:59:46.174Z,28.10
2018-11-04T05:02:14.205Z,25.27
2018-11-04T05:04:42.129Z,29.30
2018-11-04T05:07:10.619Z,29.27
2018-11-04T05:09:40.804Z,29.93
2018-11-04T05:12:08.735Z,24.80
2018-11-04T05:14:36.714Z,27.70
2018-11-04T05:17:05.024Z,29.53
2018-11-04T05:19:32.987Z,28.50
2018-11-04T05:22:01.521Z,28.43
2018-11-04T05:24:29.500Z,26.47
2018-11-04T05:26:57.509Z,25.90
2018-11-04T05:29:25.498Z,30.03
2018-11-04T05:31:53.465Z,31.03
2018-11-04T05:34:21.438Z,28.73
2018-11-04T05:36:49.425Z,25.30
2018-11-04T05:39:17.394Z,26.30
2018-11-04T05:41:45.382Z,29.87
2018-11-04T05:44:13.305Z,28.10
2018-11-04T05:46:41.294Z,31.30
2018-11-04T05:49:09.297Z,30.03
2018-11-04T05:51:37.229Z,28.30
2018-11-04T05:54:05.509Z,28.33
2018-11-04T05:56:33.451Z,29.13
2018-11-04T05:59:01.376Z,25.93
2018-11-04T06:01:29.336Z,26.77
2018-11-04T06:03:57.247Z,26.40
2018-11-04T06:06:25.133Z,26.30
2018-11-04T06:08:53.059Z,26.33
2018-11-04T06:11:21.033Z,34.37
2018-11-04T06:13:48.935Z,30.53
2018-11-04T06:16:16.840Z,28.30
2018-11-04T06:18:44.777Z,25.30
2018-11-04T06:21:12.729Z,28.33
2018-11-04T06:23:40.610Z,24.77
2018-11-04T06:26:08.731Z,28.27
2018-11-04T06:28:36.746Z,27.17
2018-11-04T06:31:04.817Z,26.03
2018-11-04T06:33:33.366Z,29.87
2018-11-04T06:36:01.578Z,28.50
2018-11-04T06:38:29.515Z,25.17
2018-11-04T06:40:57.500Z,24.50
2018-11-04T06:43:25.526Z,22.80
2018-11-04T06:45:53.454Z,26.57
2018-11-04T06:48:21.542Z,25.17
2018-11-04T06:50:49.523Z,26.97
2018-11-04T06:53:17.601Z,27.40
2018-11-04T06:55:45.637Z,23.83
2018-11-04T06:58:13.626Z,25.33
2018-11-04T07:00:41.594Z,27.23
2018-11-04T07:03:09.659Z,31.97
2018-11-04T07:05:37.780Z,30.30
2018-11-04T07:08:05.833Z,27.57
2018-11-04T07:10:33.783Z,24.43
2018-11-04T07:13:02.145Z,23.87
2018-11-04T07:15:30.051Z,24.70
2018-11-04T07:17:58.028Z,29.23
2018-11-04T07:20:25.972Z,27.97
2018-11-04T07:22:53.967Z,26.53
2018-11-04T07:25:21.947Z,25.87
2018-11-04T07:27:49.950Z,29.03
2018-11-04T07:30:17.877Z,26.50
2018-11-04T07:32:46.080Z,32.00
2018-11-04T07:35:14.005Z,29.40
2018-11-04T07:37:42.021Z,35.23
2018-11-04T07:40:10.164Z,36.70
2018-11-04T07:42:38.655Z,28.90
2018-11-04T07:45:07.178Z,35.43
2018-11-04T07:47:35.212Z,32.50
2018-11-04T07:50:03.359Z,40.30
2018-11-04T07:52:31.315Z,39.43
2018-11-04T07:54:59.333Z,34.33
2018-11-04T07:57:27.309Z,33.97
2018-11-04T07:59:55.295Z,30.53
2018-11-04T08:02:23.289Z,35.60
2018-11-04T08:04:51.555Z,35.03
2018-11-04T08:07:19.519Z,35.27
2018-11-04T08:09:47.679Z,35.60
2018-11-04T08:12:15.914Z,35.97
2018-11-04T08:14:43.944Z,36.73
2018-11-04T08:17:12.078Z,41.13
2018-11-04T08:19:40.032Z,44.27
2018-11-04T08:22:08.149Z,34.13
2018-11-04T08:24:36.140Z,38.67
2018-11-04T08:27:04.126Z,46.57
2018-11-04T08:29:32.117Z,42.47
2018-11-04T08:32:00.904Z,37.43
2018-11-04T08:34:28.935Z,35.13
2018-11-04T08:36:57.030Z,36.60
2018-11-04T08:39:25.111Z,40.17
2018-11-04T08:41:53.106Z,40.30
2018-11-04T08:44:21.068Z,40.13
2018-11-04T08:46:49.138Z,37.07
2018-11-04T08:49:17.195Z,43.17
2018-11-04T08:51:45.207Z,42.97
2018-11-04T08:54:13.218Z,48.80
2018-11-04T08:56:41.295Z,39.43
2018-11-04T08:59:09.292Z,38.07
2018-11-04T09:01:37.317Z,41.63
2018-11-04T09:04:05.321Z,47.10
2018-11-04T09:06:33.439Z,45.93
2018-11-04T09:09:01.464Z,36.43
2018-11-04T09:11:29.539Z,38.53
2018-11-04T09:13:57.526Z,36.70
2018-11-04T09:16:25.521Z,38.23
2018-11-04T09:18:53.511Z,39.07
2018-11-04T09:21:21.941Z,39.70
2018-11-04T09:23:50.160Z,45.77
2018-11-04T09:26:18.334Z,38.70
2018-11-04T09:28:46.415Z,39.43
2018-11-04T09:31:14.438Z,39.73
2018-11-04T09:33:42.435Z,37.03
2018-11-04T09:36:10.593Z,34.90
2018-11-04T09:38:38.469Z,40.73
2018-11-04T09:41:06.424Z,36.20
2018-11-04T09:43:34.505Z,38.07
2018-11-04T09:46:02.640Z,37.90
2018-11-04T09:48:30.636Z,39.27
2018-11-04T09:50:58.768Z,39.93
2018-11-04T09:53:26.801Z,43.30
2018-11-04T09:55:54.897Z,36.67
2018-11-04T09:58:22.920Z,42.03
2018-11-04T10:00:50.914Z,38.07
2018-11-04T10:03:18.842Z,37.13
2018-11-04T10:05:46.813Z,41.03
2018-11-04T10:08:14.851Z,38.77
2018-11-04T10:10:42.819Z,38.60
2018-11-04T10:13:10.901Z,32.83
2018-11-04T10:15:39.046Z,33.87
2018-11-04T10:18:07.016Z,39.93
2018-11-04T10:20:35.380Z,34.20
2018-11-04T10:23:03.561Z,34.93
2018-11-04T10:25:31.555Z,38.97
2018-11-04T10:27:59.497Z,37.17
2018-11-04T10:30:27.576Z,34.43
2018-11-04T10:32:55.545Z,36.43
2018-11-04T10:35:23.572Z,35.97
2018-11-04T10:37:51.627Z,34.70
2018-11-04T10:40:19.612Z,31.93
2018-11-04T10:42:47.580Z,37.23
2018-11-04T10:45:15.574Z,37.53
2018-11-04T10:47:43.590Z,38.00
2018-11-04T10:50:12.559Z,38.80
2018-11-04T10:52:40.589Z,33.17
2018-11-04T10:55:09.831Z,36.93
2018-11-04T10:57:37.923Z,39.17
2018-11-04T11:00:15.867Z,32.40
2018-11-04T11:02:44.504Z,32.37
2018-11-04T11:05:12.546Z,35.67
2018-11-04T11:07:40.629Z,31.10
2018-11-04T11:10:09.655Z,38.27
2018-11-04T11:12:37.676Z,35.07
2018-11-04T11:15:06.487Z,33.53
2018-11-04T11:17:34.492Z,33.73
2018-11-04T11:20:02.554Z,32.03
2018-11-04T11:22:30.571Z,30.50
2018-11-04T11:24:58.512Z,33.27
2018-11-04T11:27:28.417Z,33.03
2018-11-04T11:29:56.477Z,41.73
2018-11-04T11:32:24.423Z,35.83
2018-11-04T11:34:52.395Z,37.13
2018-11-04T11:37:20.396Z,28.97
2018-11-04T11:39:48.358Z,29.47
2018-11-04T11:42:16.307Z,28.80
2018-11-04T11:44:44.383Z,29.83
2018-11-04T11:47:12.321Z,29.77
2018-11-04T11:49:40.309Z,33.83
2018-11-04T11:52:08.438Z,31.30
2018-11-04T11:54:36.485Z,28.73
2018-11-04T11:57:04.533Z,32.50
2018-11-04T11:59:32.540Z,31.77
2018-11-04T12:02:00.635Z,34.57
2018-11-04T12:04:28.666Z,36.30
2018-11-04T12:06:57.534Z,33.73
2018-11-04T12:09:25.512Z,35.87
2018-11-04T12:11:53.700Z,32.20
2018-11-04T12:14:21.707Z,36.97
2018-11-04T12:16:49.781Z,35.40
2018-11-04T12:19:17.779Z,29.77
2018-11-04T12:21:45.771Z,35.87
2018-11-04T12:24:13.974Z,33.40
2018-11-04T12:26:41.936Z,36.17
2018-11-04T12:29:09.921Z,32.50
2018-11-04T12:31:38.195Z,33.27
2018-11-04T12:34:06.157Z,32.40
2018-11-04T12:36:34.101Z,30.57
2018-11-04T12:39:02.048Z,33.47
2018-11-04T12:41:30.279Z,34.60
2018-11-04T12:43:58.314Z,33.07
2018-11-04T12:46:26.384Z,28.33
2018-11-04T12:48:54.456Z,28.73
2018-11-04T12:51:22.469Z,35.70
2018-11-04T12:53:50.923Z,29.20
2018-11-04T12:56:19.545Z,30.57
2018-11-04T12:58:47.864Z,33.50
2018-11-04T13:01:15.935Z,32.03
2018-11-04T13:03:43.887Z,31.20
2018-11-04T13:06:13.998Z,33.77
2018-11-04T13:08:42.553Z,36.70
2018-11-04T13:11:11.013Z,32.50
2018-11-04T13:13:40.224Z,31.30
2018-11-04T13:16:09.492Z,34.03
2018-11-04T13:18:37.648Z,34.23
2018-11-04T13:21:05.828Z,32.00
2018-11-04T13:23:33.791Z,35.37
2018-11-04T13:26:01.925Z,34.83
2018-11-04T13:28:30.800Z,36.37
2018-11-04T13:30:58.792Z,35.97
2018-11-04T13:33:26.965Z,31.53
2018-11-04T13:35:55.085Z,37.57
2018-11-04T13:38:23.595Z,36.07
2018-11-04T13:40:52.045Z,33.87
2018-11-04T13:43:20.554Z,36.53
2018-11-04T13:45:48.513Z,33.87
2018-11-04T13:48:16.496Z,29.97
2018-11-04T13:50:44.541Z,33.40
2018-11-04T13:53:12.555Z,34.93
2018-11-04T13:55:40.717Z,33.17
2018-11-04T13:58:08.813Z,35.50
2018-11-04T14:00:36.877Z,35.43
2018-11-04T14:03:05.109Z,34.67
2018-11-04T14:05:33.106Z,34.37
2018-11-04T14:08:01.225Z,29.57
2018-11-04T14:10:29.189Z,36.53
2018-11-04T14:12:57.263Z,31.60
2018-11-04T14:15:25.173Z,29.03
2018-11-04T14:17:53.239Z,31.20
2018-11-04T14:20:21.287Z,31.80
2018-11-04T14:22:49.283Z,30.07
2018-11-04T14:25:17.332Z,33.00
2018-11-04T14:27:45.469Z,33.83
2018-11-04T14:30:14.544Z,34.77
2018-11-04T14:32:42.940Z,34.90
2018-11-04T14:35:11.522Z,29.60
2018-11-04T14:37:40.628Z,35.60
2018-11-04T14:40:10.431Z,35.80
2018-11-04T14:42:39.153Z,35.63
2018-11-04T14:45:07.492Z,29.27
2018-11-04T14:47:35.666Z,36.40
2018-11-04T14:50:04.486Z,33.57
2018-11-04T14:52:32.648Z,36.73
2018-11-04T14:55:00.853Z,32.87
2018-11-04T14:57:28.933Z,33.73
2018-11-04T14:59:57.318Z,36.27
2018-11-04T15:02:25.665Z,33.33
2018-11-04T15:04:53.981Z,35.13
2018-11-04T15:07:26.947Z,30.90
2018-11-04T15:09:56.399Z,33.30
2018-11-04T15:12:24.709Z,31.97
2018-11-04T15:14:52.814Z,30.10
2018-11-04T15:17:20.824Z,31.10
2018-11-04T15:19:48.828Z,27.40
2018-11-04T15:22:16.814Z,33.80
2018-11-04T15:24:44.860Z,30.53
2018-11-04T15:27:12.903Z,35.27
2018-11-04T15:29:40.946Z,32.13
2018-11-04T15:32:09.368Z,37.83
2018-11-04T15:34:37.574Z,29.87
2018-11-04T15:37:05.667Z,29.57
2018-11-04T15:39:33.589Z,27.27
2018-11-04T15:42:01.750Z,33.10
2018-11-04T15:44:29.796Z,32.80
2018-11-04T15:46:57.829Z,28.93
2018-11-04T15:49:25.864Z,29.47
2018-11-04T15:51:54.056Z,24.67
2018-11-04T15:54:23.070Z,23.00
2018-11-04T15:56:51.184Z,31.40
2018-11-04T15:59:19.233Z,33.80
2018-11-04T16:01:47.284Z,35.57
2018-11-04T16:04:15.605Z,30.73
2018-11-04T16:06:49.150Z,32.77
2018-11-04T16:09:17.230Z,33.37
2018-11-04T16:11:45.229Z,31.63
2018-11-04T16:14:13.199Z,30.13
2018-11-04T16:16:41.163Z,29.97
2018-11-04T16:19:09.629Z,27.67
2018-11-04T16:21:37.830Z,28.80
2018-11-04T16:24:05.942Z,32.27
2018-11-04T16:26:34.013Z,29.43
2018-11-04T16:29:02.003Z,30.67
2018-11-04T16:31:29.963Z,28.43
2018-11-04T16:33:57.953Z,27.93
2018-11-04T16:36:25.952Z,28.67
2018-11-04T16:38:54.071Z,29.20
2018-11-04T16:41:22.846Z,33.10
2018-11-04T16:43:57.501Z,34.17
2018-11-04T16:46:25.529Z,39.27
2018-11-04T16:48:56.677Z,32.63
2018-11-04T16:51:26.848Z,33.10
2018-11-04T16:53:54.902Z,30.23
2018-11-04T16:56:23.110Z,36.73
2018-11-04T16:58:51.424Z,33.13
2018-11-04T17:01:19.811Z,30.40
2018-11-04T17:03:53.250Z,31.87
2018-11-04T17:06:21.583Z,38.63
2018-11-04T17:08:49.694Z,34.87
2018-11-04T17:11:17.732Z,36.87
2018-11-04T17:13:45.738Z,35.53
2018-11-04T17:16:13.796Z,41.27
2018-11-04T17:18:41.913Z,40.27
2018-11-04T17:21:09.849Z,36.60
2018-11-04T17:23:37.792Z,42.87
2018-11-04T17:26:05.868Z,32.93
2018-11-04T17:28:33.840Z,39.40
2018-11-04T17:31:01.886Z,36.80
2018-11-04T17:33:29.907Z,37.80
2018-11-04T17:35:58.050Z,42.17
2018-11-04T17:38:25.977Z,36.63
2018-11-04T17:40:54.374Z,41.43
2018-11-04T17:43:22.558Z,39.87
2018-11-04T17:45:50.597Z,36.40
2018-11-04T17:48:18.616Z,36.23
2018-11-04T17:50:46.654Z,38.83
2018-11-04T17:53:20.078Z,36.03
2018-11-04T17:55:49.898Z,37.77
2018-11-04T17:58:34.252Z,36.50
2018-11-04T18:01:03.341Z,37.43
2018-11-04T18:03:32.328Z,38.10
2018-11-04T18:06:00.257Z,40.17
2018-11-04T18:08:29.284Z,36.47
2018-11-04T18:10:57.366Z,33.43
2018-11-04T18:13:25.369Z,36.40
2018-11-04T18:15:55.385Z,34.57
2018-11-04T18:18:26.575Z,34.40
2018-11-04T18:20:54.557Z,32.47
2018-11-04T18:23:22.870Z,34.33
2018-11-04T18:25:50.983Z,30.03
2018-11-04T18:28:19.103Z,34.77
2018-11-04T18:30:47.121Z,37.03
2018-11-04T18:33:15.057Z,35.77
2018-11-04T18:35:43.037Z,42.13
2018-11-04T18:38:10.970Z,37.80
2018-11-04T18:40:39.004Z,41.27
2018-11-04T18:43:06.995Z,38.73
2018-11-04T18:45:34.911Z,41.57
2018-11-04T18:48:02.855Z,40.07
2018-11-04T18:50:30.879Z,42.00
2018-11-04T18:52:58.728Z,38.87
2018-11-04T18:55:26.647Z,39.93
2018-11-04T18:57:54.533Z,42.30
2018-11-04T19:00:22.443Z,44.13
2018-11-04T19:02:50.412Z,45.93
2018-11-04T19:05:18.611Z,47.07
2018-11-04T19:07:47.323Z,43.77
2018-11-04T19:10:16.842Z,38.43
2018-11-04T19:12:44.794Z,42.67
2018-11-04T19:15:13.222Z,42.93
2018-11-04T19:17:41.159Z,46.90
2018-11-04T19:20:10.692Z,46.70
2018-11-04T19:22:39.126Z,51.27
2018-11-04T19:25:08.269Z,49.30
2018-11-04T19:27:36.362Z,46.33
2018-11-04T19:30:05.322Z,53.00
2018-11-04T19:32:33.361Z,46.10
2018-11-04T19:35:01.788Z,46.83
2018-11-04T19:37:29.775Z,47.43
2018-11-04T19:39:57.720Z,46.37
2018-11-04T19:42:25.703Z,48.60
2018-11-04T19:44:53.620Z,47.50
2018-11-04T19:47:21.507Z,49.57
2018-11-04T19:49:49.532Z,47.37
2018-11-04T19:52:17.452Z,40.70
2018-11-04T19:54:45.403Z,46.60
2018-11-04T19:57:13.384Z,49.93
2018-11-04T19:59:41.340Z,43.63
2018-11-04T20:02:09.285Z,45.60
2018-11-04T20:04:37.262Z,45.37
2018-11-04T20:07:05.473Z,46.40
2018-11-04T20:09:33.405Z,39.17
2018-11-04T20:12:02.091Z,47.67
2018-11-04T20:14:30.020Z,50.63
2018-11-04T20:16:58.034Z,43.20
2018-11-04T20:19:31.625Z,48.27
2018-11-04T20:21:59.557Z,41.33
2018-11-04T20:24:33.866Z,44.40
2018-11-04T20:27:01.841Z,38.53
2018-11-04T20:29:30.412Z,43.63
2018-11-04T20:32:03.876Z,49.00
2018-11-04T20:34:31.855Z,42.90
2018-11-04T20:36:59.934Z,42.53
2018-11-04T20:39:33.609Z,44.23
2018-11-04T20:42:05.199Z,43.17
2018-11-04T20:44:41.695Z,44.07
2018-11-04T20:47:10.621Z,41.63
2018-11-04T20:49:44.411Z,39.97
2018-11-04T20:52:12.436Z,36.90
2018-11-04T20:54:42.372Z,35.63
2018-11-04T20:57:19.656Z,34.93
2018-11-04T20:59:47.728Z,32.40
2018-11-04T21:02:15.972Z,31.80
2018-11-04T21:04:47.682Z,30.37
2018-11-04T21:07:15.802Z,30.73
2018-11-04T21:09:43.842Z,34.23
2018-11-04T21:12:11.889Z,31.00
2018-11-04T21:14:39.840Z,37.77
2018-11-04T21:17:07.961Z,33.50
2018-11-04T21:19:35.916Z,27.90
2018-11-04T21:22:04.069Z,33.77
2018-11-04T21:24:32.133Z,28.63
2018-11-04T21:27:00.149Z,30.03
2018-11-04T21:29:28.529Z,31.33
2018-11-04T21:31:56.142Z,30.20
2018-11-04T21:34:24.149Z,35.37
2018-11-04T21:36:52.189Z,31.00
2018-11-04T21:39:20.152Z,31.20
2018-11-04T21:41:48.140Z,31.30
2018-11-04T21:44:16.439Z,33.73
2018-11-04T21:46:44.077Z,32.30
2018-11-04T21:49:12.083Z,32.17
2018-11-04T21:51:40.084Z,38.97
2018-11-04T21:54:08.109Z,37.87
2018-11-04T21:56:36.222Z,37.63
2018-11-04T21:59:04.225Z,42.00
2018-11-04T22:01:32.200Z,44.37
2018-11-04T22:04:00.457Z,45.67
2018-11-04T22:06:28.834Z,40.83
2018-11-04T22:08:56.820Z,36.43
2018-11-04T22:11:24.856Z,38.33
2018-11-04T22:13:53.100Z,42.83
2018-11-04T22:16:21.001Z,33.33
2018-11-04T22:18:48.934Z,86.23
2018-11-04T22:21:17.122Z,44.20
2018-11-04T22:23:45.140Z,34.33
2018-11-04T22:26:13.105Z,32.73
2018-11-04T22:28:41.160Z,34.83
2018-11-04T22:31:09.141Z,33.27
2018-11-04T22:33:37.139Z,41.93
2018-11-04T22:36:05.451Z,39.33
2018-11-04T22:38:33.384Z,39.57
2018-11-04T22:41:01.414Z,43.27
2018-11-04T22:43:29.401Z,50.57
2018-11-04T22:45:57.397Z,56.40
2018-11-04T22:48:25.356Z,91.00
2018-11-04T22:50:53.409Z,88.77
2018-11-04T22:53:21.402Z,109.13
2018-11-04T22:55:49.429Z,102.30
2018-11-04T22:58:17.478Z,62.73
2018-11-04T23:00:46.456Z,117.47
2018-11-04T23:03:14.502Z,91.03
2018-11-04T23:05:42.562Z,85.23
2018-11-04T23:08:10.710Z,139.10
2018-11-04T23:10:38.661Z,61.40
2018-11-04T23:13:06.719Z,51.80
2018-11-04T23:15:34.696Z,90.53
2018-11-04T23:18:02.837Z,60.97
2018-11-04T23:20:30.817Z,208.60
2018-11-04T23:22:58.857Z,82.20
2018-11-04T23:25:26.873Z,104.40
2018-11-04T23:27:54.896Z,29.47
2018-11-04T23:30:22.980Z,29.40
2018-11-04T23:32:51.021Z,83.03
2018-11-04T23:35:18.982Z,84.70
2018-11-04T23:37:47.108Z,69.03
2018-11-04T23:40:15.047Z,145.30
2018-11-04T23:42:43.074Z,134.00
2018-11-04T23:45:12.624Z,50.93
2018-11-04T23:47:40.608Z,109.90
2018-11-04T23:50:11.160Z,148.23
2018-11-04T23:52:39.100Z,222.83
2018-11-04T23:55:08.046Z,135.90
2018-11-04T23:57:35.949Z,165.67
